createdAt,value
2022-11-29T00:01:23.893Z,11.15
2022-11-29T00:03:51.164Z,11.65
2022-11-29T00:06:20.559Z,13.85
2022-11-29T00:08:48.040Z,18.52
2022-11-29T00:11:38.531Z,27.55
2022-11-29T00:14:06.881Z,25.10
2022-11-29T00:16:34.170Z,18.35
2022-11-29T00:19:01.362Z,11.85
2022-11-29T00:21:29.167Z,29.92
2022-11-29T00:23:55.915Z,18.08
2022-11-29T00:26:22.676Z,14.00
2022-11-29T00:28:49.493Z,13.57
2022-11-29T00:31:21.760Z,13.15
2022-11-29T00:33:49.448Z,12.82
2022-11-29T00:36:16.966Z,12.57
2022-11-29T00:38:44.315Z,12.98
2022-11-29T00:41:11.791Z,12.52
2022-11-29T00:43:39.282Z,12.23
2022-11-29T00:46:06.813Z,12.00
2022-11-29T00:48:34.762Z,12.32
2022-11-29T00:51:03.173Z,12.77
2022-11-29T00:53:30.279Z,13.48
2022-11-29T00:55:57.582Z,12.60
2022-11-29T00:58:24.791Z,13.23
2022-11-29T01:00:54.868Z,12.38
2022-11-29T01:03:22.192Z,12.60
2022-11-29T01:05:49.599Z,12.13
2022-11-29T01:08:17.429Z,12.95
2022-11-29T01:10:44.731Z,12.15
2022-11-29T01:13:12.138Z,13.32
2022-11-29T01:15:39.133Z,12.48
2022-11-29T01:18:05.979Z,11.75
2022-11-29T01:20:33.865Z,12.85
2022-11-29T01:23:01.282Z,12.45
2022-11-29T01:25:28.497Z,12.57
2022-11-29T01:27:55.423Z,12.30
2022-11-29T01:30:22.414Z,12.25
2022-11-29T01:32:49.890Z,12.45
2022-11-29T01:35:17.147Z,12.25
2022-11-29T01:37:44.075Z,12.75
2022-11-29T01:40:11.453Z,12.15
2022-11-29T01:42:38.287Z,12.02
2022-11-29T01:45:08.092Z,12.57
2022-11-29T01:47:43.712Z,11.20
2022-11-29T01:50:11.095Z,12.00
2022-11-29T01:52:38.501Z,12.40
2022-11-29T01:55:08.135Z,12.35
2022-11-29T01:57:36.853Z,12.90
2022-11-29T02:00:10.846Z,11.30
2022-11-29T02:02:44.779Z,11.65
2022-11-29T02:05:15.028Z,12.02
2022-11-29T02:07:46.026Z,11.70
2022-11-29T02:10:15.846Z,12.00
2022-11-29T02:12:54.694Z,12.38
2022-11-29T02:15:43.589Z,12.23
2022-11-29T02:18:19.701Z,12.70
2022-11-29T02:21:07.646Z,11.95
2022-11-29T02:24:11.707Z,12.07
2022-11-29T02:26:58.191Z,12.40
2022-11-29T02:29:43.631Z,12.52
2022-11-29T02:32:32.208Z,11.82
2022-11-29T02:35:05.667Z,11.90
2022-11-29T02:37:41.493Z,11.75
2022-11-29T02:40:53.126Z,11.70
2022-11-29T02:43:46.098Z,11.38
2022-11-29T02:46:37.942Z,12.30
2022-11-29T02:49:36.128Z,11.57
2022-11-29T02:52:10.715Z,12.55
2022-11-29T02:54:54.948Z,12.05
2022-11-29T02:57:28.446Z,11.30
2022-11-29T02:59:59.607Z,16.17
2022-11-29T03:02:57.539Z,16.83
2022-11-29T03:05:50.926Z,15.07
2022-11-29T03:08:47.061Z,45.78
2022-11-29T03:11:46.406Z,14.57
2022-11-29T03:14:28.597Z,16.00
2022-11-29T03:17:22.766Z,23.65
2022-11-29T03:20:05.090Z,33.00
2022-11-29T03:22:41.284Z,21.75
2022-11-29T03:25:27.845Z,14.75
2022-11-29T03:28:04.998Z,12.68
2022-11-29T03:30:37.926Z,13.02
2022-11-29T03:33:05.202Z,12.43
2022-11-29T03:35:38.113Z,12.63
2022-11-29T03:38:43.887Z,11.65
2022-11-29T03:41:36.949Z,12.60
2022-11-29T03:44:13.364Z,17.23
2022-11-29T03:47:08.224Z,11.85
2022-11-29T03:49:46.186Z,14.63
2022-11-29T03:52:19.977Z,11.90
2022-11-29T03:57:40.564Z,18.95
2022-11-29T04:00:10.094Z,13.38
2022-11-29T04:02:58.249Z,26.02
2022-11-29T04:05:37.773Z,15.65
2022-11-29T04:08:29.114Z,13.23
2022-11-29T04:11:07.763Z,11.77
2022-11-29T04:13:52.919Z,12.82
2022-11-29T04:16:41.597Z,12.75
2022-11-29T04:19:46.840Z,12.18
2022-11-29T04:22:45.098Z,12.20
2022-11-29T04:25:30.071Z,12.50
2022-11-29T04:28:15.190Z,12.52
2022-11-29T04:30:56.978Z,12.77
2022-11-29T04:33:55.453Z,12.10
2022-11-29T04:36:41.139Z,13.07
2022-11-29T04:39:25.943Z,11.63
2022-11-29T04:42:21.067Z,15.95
2022-11-29T04:45:12.490Z,16.02
2022-11-29T04:48:00.511Z,14.02
2022-11-29T04:50:55.629Z,12.88
2022-11-29T04:53:44.036Z,13.27
2022-11-29T04:56:36.366Z,11.98
2022-11-29T04:59:03.085Z,12.50
2022-11-29T05:02:10.976Z,12.77
2022-11-29T05:04:46.734Z,12.15
2022-11-29T05:07:30.110Z,11.70
2022-11-29T05:10:23.891Z,12.27
2022-11-29T05:13:16.341Z,12.23
2022-11-29T05:16:05.098Z,14.77
2022-11-29T05:18:53.733Z,13.07
2022-11-29T05:21:37.423Z,15.15
2022-11-29T05:24:17.241Z,27.80
2022-11-29T05:26:57.893Z,34.50
2022-11-29T05:29:34.188Z,14.82
2022-11-29T05:32:25.509Z,12.35
2022-11-29T05:35:03.146Z,12.35
2022-11-29T05:38:03.952Z,12.63
2022-11-29T05:40:39.637Z,12.20
2022-11-29T05:43:12.235Z,11.85
2022-11-29T05:46:00.820Z,11.88
2022-11-29T05:48:50.981Z,11.27
2022-11-29T05:51:26.922Z,11.77
2022-11-29T05:54:14.535Z,12.07
2022-11-29T05:57:12.808Z,12.13
2022-11-29T05:59:41.704Z,12.32
2022-11-29T06:02:27.008Z,13.05
2022-11-29T06:04:57.366Z,12.40
2022-11-29T06:07:46.333Z,11.75
2022-11-29T06:10:19.079Z,12.68
2022-11-29T06:13:00.470Z,13.25
2022-11-29T06:15:43.901Z,12.85
2022-11-29T06:18:22.931Z,12.75
2022-11-29T06:21:08.754Z,13.88
2022-11-29T06:23:48.529Z,14.43
2022-11-29T06:26:34.434Z,15.93
2022-11-29T06:29:23.853Z,16.42
2022-11-29T06:32:02.924Z,14.90
2022-11-29T06:34:48.835Z,14.35
2022-11-29T06:37:24.413Z,13.82
2022-11-29T06:39:51.604Z,17.02
2022-11-29T06:42:18.449Z,20.25
2022-11-29T06:44:45.809Z,18.27
2022-11-29T06:47:27.660Z,17.55
2022-11-29T06:50:01.235Z,19.23
2022-11-29T06:52:50.057Z,20.77
2022-11-29T06:55:50.663Z,22.20
2022-11-29T06:58:36.552Z,24.17
2022-11-29T07:01:29.282Z,17.30
2022-11-29T07:03:58.716Z,15.55
2022-11-29T07:06:27.844Z,14.40
2022-11-29T07:09:13.930Z,15.60
2022-11-29T07:11:41.865Z,13.25
2022-11-29T07:14:10.059Z,13.68
2022-11-29T07:17:04.614Z,12.60
2022-11-29T07:19:34.121Z,13.02
2022-11-29T07:22:06.820Z,14.45
2022-11-29T07:24:39.635Z,16.52
2022-11-29T07:27:09.445Z,16.37
2022-11-29T07:29:58.028Z,16.48
2022-11-29T07:32:47.268Z,14.98
2022-11-29T07:35:54.233Z,15.40
2022-11-29T07:38:27.135Z,15.27
2022-11-29T07:40:56.563Z,16.33
2022-11-29T07:43:41.779Z,14.30
2022-11-29T07:46:08.564Z,13.50
2022-11-29T07:48:35.387Z,12.63
2022-11-29T07:51:02.840Z,14.63
2022-11-29T07:53:30.753Z,14.50
2022-11-29T07:55:58.155Z,14.18
2022-11-29T07:58:25.461Z,16.75
2022-11-29T08:00:52.553Z,14.15
2022-11-29T08:03:19.501Z,13.90
2022-11-29T08:05:58.890Z,15.82
2022-11-29T08:08:37.725Z,13.45
2022-11-29T08:11:47.682Z,13.88
2022-11-29T08:14:26.946Z,15.00
2022-11-29T08:16:58.708Z,17.60
2022-11-29T08:19:33.811Z,13.45
2022-11-29T08:22:17.612Z,13.07
2022-11-29T08:24:57.840Z,13.23
2022-11-29T08:27:33.148Z,11.93
2022-11-29T08:30:13.452Z,12.80
2022-11-29T08:32:51.122Z,12.68
2022-11-29T08:35:20.460Z,11.55
2022-11-29T08:37:47.450Z,12.70
2022-11-29T08:40:15.321Z,13.15
2022-11-29T08:42:42.393Z,12.25
2022-11-29T08:45:11.094Z,12.40
2022-11-29T08:47:39.025Z,12.00
2022-11-29T08:50:07.397Z,11.60
2022-11-29T08:52:54.829Z,13.38
2022-11-29T08:55:24.171Z,12.75
2022-11-29T08:57:52.141Z,12.52
2022-11-29T09:00:21.333Z,12.70
2022-11-29T09:02:48.922Z,16.42
2022-11-29T09:05:15.966Z,20.48
2022-11-29T09:07:43.527Z,18.23
2022-11-29T09:10:12.331Z,16.63
2022-11-29T09:12:40.714Z,17.85
2022-11-29T09:15:09.768Z,12.35
2022-11-29T09:17:37.187Z,14.95
2022-11-29T09:20:05.051Z,14.95
2022-11-29T09:22:31.944Z,16.02
2022-11-29T09:24:59.143Z,14.35
2022-11-29T09:27:26.600Z,14.10
2022-11-29T09:29:54.311Z,13.25
2022-11-29T09:32:21.108Z,16.20
2022-11-29T09:34:48.464Z,15.18
2022-11-29T09:37:15.337Z,12.60
2022-11-29T09:39:42.165Z,13.18
2022-11-29T09:42:27.336Z,12.60
2022-11-29T09:45:07.820Z,13.40
2022-11-29T09:47:53.626Z,12.65
2022-11-29T09:50:34.166Z,13.88
2022-11-29T09:53:49.110Z,12.05
2022-11-29T09:58:53.587Z,13.18
2022-11-29T10:01:28.564Z,12.55
2022-11-29T10:04:07.329Z,12.68
2022-11-29T10:07:26.572Z,11.43
2022-11-29T10:10:32.825Z,10.57
2022-11-29T10:13:25.910Z,12.48
2022-11-29T10:16:08.814Z,11.85
2022-11-29T10:19:13.771Z,10.95
2022-11-29T10:22:35.699Z,15.25
2022-11-29T10:25:06.138Z,12.95
2022-11-29T10:27:33.043Z,12.25
2022-11-29T10:30:02.551Z,12.57
2022-11-29T10:32:32.277Z,11.82
2022-11-29T10:35:00.996Z,13.23
2022-11-29T10:37:32.808Z,12.43
2022-11-29T10:40:08.088Z,18.80
2022-11-29T10:42:49.786Z,16.15
2022-11-29T10:45:25.602Z,15.35
2022-11-29T10:47:55.568Z,12.23
2022-11-29T10:50:28.072Z,11.73
2022-11-29T10:53:12.405Z,12.02
2022-11-29T10:55:44.561Z,13.45
2022-11-29T10:58:14.519Z,14.55
2022-11-29T11:01:02.576Z,14.50
2022-11-29T11:03:37.657Z,14.13
2022-11-29T11:06:09.421Z,12.90
2022-11-29T11:08:37.708Z,12.00
2022-11-29T11:11:07.733Z,11.75
2022-11-29T11:13:36.337Z,11.60
2022-11-29T11:16:18.157Z,12.40
2022-11-29T11:18:47.112Z,12.60
2022-11-29T11:21:17.088Z,11.43
2022-11-29T11:23:54.730Z,12.55
2022-11-29T11:26:23.100Z,11.15
2022-11-29T11:28:54.980Z,11.48
2022-11-29T11:31:38.281Z,10.45
2022-11-29T11:34:24.031Z,10.77
2022-11-29T11:36:50.942Z,11.35
2022-11-29T11:39:23.226Z,10.95
2022-11-29T11:42:10.976Z,13.05
2022-11-29T11:44:53.455Z,10.25
2022-11-29T11:48:01.035Z,10.80
2022-11-29T11:50:31.584Z,10.45
2022-11-29T11:53:04.067Z,10.45
2022-11-29T11:55:36.124Z,43.97
2022-11-29T11:58:10.555Z,13.00
2022-11-29T12:01:05.882Z,16.08
2022-11-29T12:03:49.985Z,10.23
2022-11-29T12:06:41.990Z,24.27
2022-11-29T12:09:08.756Z,11.85
2022-11-29T12:11:48.552Z,20.05
2022-11-29T12:14:46.421Z,10.80
2022-11-29T12:17:28.179Z,12.82
2022-11-29T12:20:13.119Z,10.75
2022-11-29T12:22:49.515Z,11.07
2022-11-29T12:25:23.844Z,10.00
2022-11-29T12:27:51.089Z,10.82
2022-11-29T12:30:19.423Z,10.32
2022-11-29T12:33:10.345Z,11.38
2022-11-29T12:35:39.898Z,11.13
2022-11-29T12:38:25.520Z,9.40
2022-11-29T12:41:04.445Z,10.20
2022-11-29T12:43:58.098Z,11.43
2022-11-29T12:46:27.788Z,9.15
2022-11-29T12:49:16.622Z,9.73
2022-11-29T12:51:53.084Z,9.23
2022-11-29T12:54:38.802Z,9.35
2022-11-29T12:57:24.938Z,11.90
2022-11-29T13:00:01.674Z,9.88
2022-11-29T13:02:39.699Z,11.05
2022-11-29T13:05:23.595Z,10.30
2022-11-29T13:08:05.704Z,9.55
2022-11-29T13:10:46.347Z,10.25
2022-11-29T13:13:43.280Z,9.82
2022-11-29T13:16:31.251Z,10.02
2022-11-29T13:19:36.021Z,9.95
2022-11-29T13:22:36.753Z,9.30
2022-11-29T13:25:15.737Z,10.13
2022-11-29T13:27:58.552Z,9.60
2022-11-29T13:30:26.295Z,10.25
2022-11-29T13:33:07.369Z,10.65
2022-11-29T13:35:44.378Z,10.80
2022-11-29T13:38:32.963Z,10.60
2022-11-29T13:41:02.366Z,9.10
2022-11-29T13:43:42.461Z,9.55
2022-11-29T13:46:36.808Z,10.55
2022-11-29T13:49:03.815Z,9.75
2022-11-29T13:51:37.551Z,9.73
2022-11-29T13:57:10.266Z,9.88
2022-11-29T13:59:45.762Z,12.32
2022-11-29T14:02:30.484Z,9.85
2022-11-29T14:04:57.695Z,9.60
2022-11-29T14:07:24.629Z,12.07
2022-11-29T14:09:59.147Z,18.38
2022-11-29T14:13:00.000Z,36.95
2022-11-29T14:15:29.579Z,23.20
2022-11-29T14:18:03.364Z,33.47
2022-11-29T14:23:15.137Z,20.80
2022-11-29T14:26:03.063Z,15.50
2022-11-29T14:28:32.661Z,12.35
2022-11-29T14:31:02.214Z,27.52
2022-11-29T14:33:44.462Z,17.50
2022-11-29T14:36:14.652Z,14.68
2022-11-29T14:39:06.161Z,12.20
2022-11-29T14:41:51.190Z,11.23
2022-11-29T14:44:24.273Z,11.27
2022-11-29T14:47:04.030Z,11.30
2022-11-29T14:49:37.457Z,14.20
2022-11-29T14:52:13.310Z,13.30
2022-11-29T14:54:54.859Z,17.13
2022-11-29T14:57:49.921Z,24.92
2022-11-29T15:00:19.479Z,15.60
2022-11-29T15:03:00.786Z,13.63
2022-11-29T15:06:07.645Z,14.75
2022-11-29T15:08:47.073Z,14.68
2022-11-29T15:11:31.778Z,18.52
2022-11-29T15:14:07.465Z,17.27
2022-11-29T15:16:43.088Z,15.30
2022-11-29T15:19:54.991Z,12.88
2022-11-29T15:22:28.157Z,13.35
2022-11-29T15:24:59.586Z,14.13
2022-11-29T15:27:26.420Z,13.20
2022-11-29T15:29:53.290Z,15.40
2022-11-29T15:32:25.976Z,13.63
2022-11-29T15:34:55.529Z,21.25
2022-11-29T15:37:32.545Z,22.67
2022-11-29T15:40:05.792Z,27.13
2022-11-29T15:42:47.643Z,30.50
2022-11-29T15:45:37.578Z,31.63
2022-11-29T15:48:22.951Z,20.30
2022-11-29T15:51:04.972Z,21.52
2022-11-29T15:53:47.527Z,17.45
2022-11-29T15:56:30.244Z,15.18
2022-11-29T15:59:06.355Z,13.25
2022-11-29T16:01:34.469Z,11.27
2022-11-29T16:04:01.797Z,11.65
2022-11-29T16:06:44.045Z,10.52
2022-11-29T16:09:18.176Z,11.82
2022-11-29T16:11:47.009Z,18.30
2022-11-29T16:14:26.027Z,20.33
2022-11-29T16:16:55.944Z,19.23
2022-11-29T16:19:28.818Z,14.95
2022-11-29T16:21:59.521Z,16.47
2022-11-29T16:24:26.792Z,17.73
2022-11-29T16:26:54.783Z,20.58
2022-11-29T16:29:36.298Z,22.27
2022-11-29T16:32:24.564Z,15.23
2022-11-29T16:34:54.687Z,14.13
2022-11-29T16:37:25.336Z,14.60
2022-11-29T16:40:00.269Z,14.02
2022-11-29T16:42:32.748Z,12.75
2022-11-29T16:45:02.450Z,13.27
2022-11-29T16:48:01.661Z,11.23
2022-11-29T16:50:30.778Z,28.40
2022-11-29T16:53:34.767Z,55.28
2022-11-29T16:56:01.728Z,38.00
2022-11-29T16:58:28.682Z,23.15
2022-11-29T17:00:55.693Z,18.67
2022-11-29T17:03:22.748Z,13.15
2022-11-29T17:05:50.326Z,11.48
2022-11-29T17:08:17.154Z,10.70
2022-11-29T17:10:43.922Z,10.98
2022-11-29T17:13:11.876Z,12.43
2022-11-29T17:15:38.737Z,14.18
2022-11-29T17:18:05.579Z,13.18
2022-11-29T17:20:33.001Z,25.00
2022-11-29T17:22:59.846Z,26.88
2022-11-29T17:25:26.604Z,24.80
2022-11-29T17:27:53.462Z,22.13
2022-11-29T17:30:20.376Z,18.75
2022-11-29T17:32:47.215Z,17.83
2022-11-29T17:35:14.051Z,18.63
2022-11-29T17:37:40.817Z,19.67
2022-11-29T17:40:08.530Z,17.23
2022-11-29T17:42:35.310Z,15.80
2022-11-29T17:45:02.057Z,14.93
2022-11-29T17:47:28.826Z,13.70
2022-11-29T17:49:55.693Z,17.42
2022-11-29T17:52:22.477Z,20.52
2022-11-29T17:54:49.826Z,18.17
2022-11-29T17:57:20.202Z,18.33
2022-11-29T17:59:48.444Z,16.02
2022-11-29T18:02:16.109Z,16.50
2022-11-29T18:04:44.085Z,23.80
2022-11-29T18:07:13.098Z,21.08
2022-11-29T18:09:40.198Z,22.35
2022-11-29T18:12:09.751Z,23.48
2022-11-29T18:14:39.027Z,22.67
2022-11-29T18:17:05.783Z,11.32
2022-11-29T18:19:32.744Z,12.25
2022-11-29T18:21:59.628Z,10.25
2022-11-29T18:24:26.420Z,12.98
2022-11-29T18:26:53.265Z,11.55
2022-11-29T18:29:20.783Z,12.38
2022-11-29T18:31:48.548Z,11.90
2022-11-29T18:34:16.028Z,10.73
2022-11-29T18:36:48.323Z,10.85
2022-11-29T18:39:18.104Z,29.00
2022-11-29T18:41:47.168Z,23.23
2022-11-29T18:44:15.956Z,33.17
2022-11-29T18:46:44.521Z,25.20
2022-11-29T18:49:17.197Z,17.25
2022-11-29T18:51:47.087Z,12.23
2022-11-29T18:54:20.337Z,11.38
2022-11-29T18:59:17.958Z,13.60
2022-11-29T19:01:46.327Z,13.52
2022-11-29T19:04:16.224Z,14.77
2022-11-29T19:06:43.573Z,28.25
2022-11-29T19:09:23.914Z,19.13
2022-11-29T19:11:51.039Z,20.77
2022-11-29T19:14:18.636Z,19.75
2022-11-29T19:16:47.609Z,23.98
2022-11-29T19:19:14.780Z,28.42
2022-11-29T19:21:41.823Z,29.50
2022-11-29T19:24:15.910Z,23.60
2022-11-29T19:26:45.946Z,23.88
2022-11-29T19:29:18.521Z,29.73
2022-11-29T19:31:45.503Z,39.08
2022-11-29T19:34:12.559Z,29.80
2022-11-29T19:36:44.983Z,33.63
2022-11-29T19:39:15.356Z,32.45
2022-11-29T19:41:46.990Z,44.42
2022-11-29T19:44:14.312Z,34.22
2022-11-29T19:46:47.125Z,23.10
2022-11-29T19:49:15.032Z,17.57
2022-11-29T19:51:42.056Z,15.95
2022-11-29T19:54:09.968Z,14.65
2022-11-29T19:56:38.247Z,15.30
2022-11-29T19:59:06.724Z,19.10
2022-11-29T20:01:40.678Z,18.40
2022-11-29T20:04:10.132Z,18.58
2022-11-29T20:06:37.129Z,18.55
2022-11-29T20:09:04.175Z,17.38
2022-11-29T20:11:31.191Z,14.02
2022-11-29T20:14:00.625Z,15.23
2022-11-29T20:16:29.623Z,18.83
2022-11-29T20:18:57.309Z,42.03
2022-11-29T20:21:28.072Z,16.20
2022-11-29T20:23:57.518Z,11.90
2022-11-29T20:26:24.827Z,12.13
2022-11-29T20:28:52.459Z,11.73
2022-11-29T20:31:24.056Z,12.80
2022-11-29T20:33:53.437Z,11.30
2022-11-29T20:36:58.243Z,12.13
2022-11-29T20:42:10.774Z,12.13
2022-11-29T20:44:44.736Z,13.57
2022-11-29T20:47:17.794Z,16.25
2022-11-29T20:49:46.687Z,13.30
2022-11-29T20:52:25.279Z,12.43
2022-11-29T20:54:52.114Z,11.85
2022-11-29T20:57:18.992Z,11.57
2022-11-29T20:59:46.155Z,11.00
2022-11-29T21:02:13.244Z,10.40
2022-11-29T21:04:40.030Z,11.05
2022-11-29T21:07:06.820Z,11.95
2022-11-29T21:09:34.053Z,12.18
2022-11-29T21:12:01.054Z,13.05
2022-11-29T21:14:28.121Z,13.98
2022-11-29T21:16:55.664Z,12.93
2022-11-29T21:19:25.912Z,15.25
2022-11-29T21:22:04.980Z,17.25
2022-11-29T21:24:47.183Z,16.10
2022-11-29T21:27:20.357Z,13.25
2022-11-29T21:29:47.493Z,13.98
2022-11-29T21:32:22.157Z,14.52
2022-11-29T21:34:49.579Z,12.57
2022-11-29T21:37:20.309Z,11.65
2022-11-29T21:39:49.190Z,11.00
2022-11-29T21:42:16.158Z,11.68
2022-11-29T21:44:43.518Z,10.93
2022-11-29T21:47:10.410Z,14.15
2022-11-29T21:49:37.253Z,13.23
2022-11-29T21:52:05.249Z,13.18
2022-11-29T21:54:32.852Z,12.10
2022-11-29T21:57:00.414Z,13.45
2022-11-29T21:59:28.187Z,14.57
2022-11-29T22:01:55.205Z,16.35
2022-11-29T22:04:22.463Z,16.35
2022-11-29T22:06:49.414Z,22.75
2022-11-29T22:09:16.386Z,18.92
2022-11-29T22:11:43.191Z,15.63
2022-11-29T22:14:15.354Z,13.82
2022-11-29T22:16:59.748Z,13.40
2022-11-29T22:19:28.005Z,11.65
2022-11-29T22:21:57.566Z,12.98
2022-11-29T22:24:26.604Z,12.55
2022-11-29T22:26:53.677Z,12.35
2022-11-29T22:29:20.753Z,12.75
2022-11-29T22:31:49.714Z,11.55
2022-11-29T22:34:16.948Z,13.18
2022-11-29T22:36:43.780Z,13.13
2022-11-29T22:39:11.116Z,12.77
2022-11-29T22:41:39.598Z,13.25
2022-11-29T22:44:07.296Z,12.43
2022-11-29T22:46:39.030Z,13.98
2022-11-29T22:49:05.897Z,12.77
2022-11-29T22:51:35.365Z,13.50
2022-11-29T22:54:05.395Z,12.13
2022-11-29T22:56:36.026Z,11.88
2022-11-29T22:59:03.313Z,12.27
2022-11-29T23:01:31.944Z,14.70
2022-11-29T23:04:00.986Z,13.23
2022-11-29T23:06:29.850Z,12.15
2022-11-29T23:08:59.760Z,12.63
2022-11-29T23:11:28.912Z,11.65
2022-11-29T23:13:56.357Z,12.95
2022-11-29T23:16:27.593Z,12.15
2022-11-29T23:18:56.583Z,11.48
2022-11-29T23:21:24.740Z,13.57
2022-11-29T23:23:56.311Z,11.57
2022-11-29T23:26:30.871Z,11.38
2022-11-29T23:28:58.626Z,11.07
2022-11-29T23:31:25.742Z,11.95
2022-11-29T23:33:52.693Z,11.93
2022-11-29T23:36:19.700Z,11.60
2022-11-29T23:38:47.781Z,11.05
2022-11-29T23:41:14.935Z,12.30
2022-11-29T23:43:42.273Z,12.80
2022-11-29T23:46:12.782Z,12.13
2022-11-29T23:48:39.838Z,12.77
2022-11-29T23:51:07.117Z,13.23
2022-11-29T23:53:34.056Z,12.27
2022-11-29T23:56:03.859Z,12.15
2022-11-29T23:58:31.721Z,13.05
